»·PEaware :: N132KT KDLO-KSNA

N132KT :: KDLO-KSNA

FLIGHT INFORMATION

Flight Status: Arrived
Operator: Privately registered:
United States
More flights under this callsign
Pilot: Keith S. (1)
Aircraft: BEECH AIRCRAFT BARON
(BE58)
More flights by this aircraft type
Origin: KDLO Delano Mun
United States
Destination: KSNA John Wayne-Orange Co
United States
More flights between these airports :: More routes between these airports
Route:
File this flight plan on PilotEdge
Remarks:
Altitude:
(Current/Filed)
11,500ft
Speed:
(Current/Filed)
170kts
Departed: 24-Aug-19 10:57 AM
Arrived: 24-Aug-19 11:51 AM
Distance/Time
Traveled:
141nm/0:54
Distance/Time
To Go:
Arrived

Flight Plot

Page will automatically refresh every two minutes.


Map Options




Map Legend


Flown Route
Filed Route
Departure Airport
Arrival Airport
Navaid (VOR, NDB)
Fix

Horizontal Profiles

Position Reports

Time Latitude Longitude Heading Altitude Ground
Speed
24-Aug-19 10:37 35.744335 -119.238249 69 316ft 0kts
24-Aug-19 10:38 35.744335 -119.238249 69 316ft 0kts
24-Aug-19 10:39 35.744335 -119.238249 69 316ft 0kts
24-Aug-19 10:40 35.744335 -119.238249 69 316ft 0kts
24-Aug-19 10:41 35.744335 -119.238249 69 316ft 0kts
24-Aug-19 10:42 35.744335 -119.238249 69 316ft 0kts
24-Aug-19 10:43 35.744335 -119.238249 69 316ft 0kts
24-Aug-19 10:44 35.744335 -119.238249 69 316ft 0kts
24-Aug-19 10:45 35.744335 -119.238249 69 316ft 0kts
24-Aug-19 10:46 35.744335 -119.238249 69 316ft 0kts
24-Aug-19 10:47 35.744335 -119.238249 69 316ft 0kts
24-Aug-19 10:48 35.744335 -119.238249 69 316ft 0kts
24-Aug-19 10:49 35.744335 -119.238249 69 316ft 0kts
24-Aug-19 10:50 35.744335 -119.238249 69 316ft 0kts
24-Aug-19 10:51 35.744335 -119.238249 69 316ft 0kts
24-Aug-19 10:52 35.742977 -119.236990 158 316ft 20kts
24-Aug-19 10:53 35.738593 -119.233974 114 316ft 0kts
24-Aug-19 10:54 35.738593 -119.233974 114 316ft 0kts
24-Aug-19 10:55 35.738593 -119.233974 114 316ft 0kts
24-Aug-19 10:56 35.747054 -119.237152 340 391ft 115kts
24-Aug-19 10:57 35.767558 -119.268259 286 1889ft 136kts
24-Aug-19 10:58 35.748947 -119.298369 160 2971ft 153kts
24-Aug-19 10:59 35.734976 -119.247636 95 3796ft 167kts
24-Aug-19 11:00 35.702084 -119.209565 155 4085ft 181kts
24-Aug-19 11:01 35.665046 -119.178350 152 5065ft 157kts
24-Aug-19 11:02 35.626587 -119.151711 153 5903ft 155kts
24-Aug-19 11:03 35.588449 -119.125427 152 6609ft 158kts
24-Aug-19 11:04 35.550827 -119.099730 153 7327ft 156kts
24-Aug-19 11:06 35.509994 -119.072030 153 7527ft 178kts
24-Aug-19 11:07 35.464024 -119.045991 159 7474ft 186kts
24-Aug-19 11:08 35.415945 -119.040353 151 7342ft 187kts
24-Aug-19 11:09 35.372379 -119.010674 166 7647ft 180kts
24-Aug-19 11:10 35.322581 -118.992838 166 7487ft 188kts
24-Aug-19 11:11 35.272316 -118.975024 165 7421ft 183kts
24-Aug-19 11:12 35.223750 -118.961907 171 7522ft 178kts
24-Aug-19 11:13 35.174656 -118.951147 166 7492ft 182kts
24-Aug-19 11:14 35.126301 -118.936227 166 7654ft 174kts
24-Aug-19 11:15 35.078517 -118.922975 171 7728ft 176kts
24-Aug-19 11:16 35.029019 -118.913441 174 7559ft 183kts
24-Aug-19 11:17 34.979526 -118.902943 169 7573ft 177kts
24-Aug-19 11:18 34.931443 -118.891090 167 7558ft 179kts
24-Aug-19 11:19 34.886803 -118.879574 171 7399ft 179kts
24-Aug-19 11:20 34.839080 -118.869743 156 7574ft 168kts
24-Aug-19 11:21 34.800134 -118.835885 149 7548ft 174kts
24-Aug-19 11:22 34.759180 -118.804043 151 7513ft 175kts
24-Aug-19 11:23 34.718171 -118.772659 148 7460ft 176kts
24-Aug-19 11:23 34.682714 -118.748631 152 7487ft 173kts
24-Aug-19 11:25 34.633471 -118.712836 148 7369ft 180kts
24-Aug-19 11:26 34.590407 -118.682937 147 7349ft 179kts
24-Aug-19 11:26 34.553939 -118.658344 153 7297ft 184kts
24-Aug-19 11:28 34.504134 -118.618922 147 7482ft 186kts
24-Aug-19 11:28 34.468560 -118.588963 149 7526ft 188kts
24-Aug-19 11:29 34.424846 -118.554248 148 7555ft 188kts
24-Aug-19 11:31 34.375005 -118.510390 149 7522ft 192kts
24-Aug-19 11:31 34.336321 -118.482565 154 7361ft 193kts
24-Aug-19 11:32 34.292856 -118.446239 145 7447ft 189kts
24-Aug-19 11:33 34.245671 -118.417665 153 7390ft 186kts
24-Aug-19 11:34 34.212072 -118.369469 112 7382ft 194kts
24-Aug-19 11:35 34.192055 -118.308573 113 7068ft 205kts
24-Aug-19 11:36 34.170398 -118.240499 112 5838ft 225kts
24-Aug-19 11:37 34.146590 -118.172416 113 4873ft 219kts
24-Aug-19 11:38 34.124421 -118.104337 111 3834ft 214kts
24-Aug-19 11:39 34.100301 -118.041718 127 3153ft 197kts
24-Aug-19 11:40 34.056418 -118.010387 156 3400ft 168kts
24-Aug-19 11:41 34.013231 -117.990501 159 3751ft 168kts
24-Aug-19 11:42 33.966820 -117.972605 159 3580ft 176kts
24-Aug-19 11:43 33.921313 -117.950094 157 3459ft 176kts
24-Aug-19 11:44 33.878335 -117.933085 177 3352ft 175kts
24-Aug-19 11:45 33.830523 -117.930735 178 3496ft 167kts
24-Aug-19 11:46 33.783422 -117.927945 176 3474ft 173kts
24-Aug-19 11:47 33.734812 -117.922670 177 3355ft 172kts
24-Aug-19 11:48 33.707661 -117.885003 111 2240ft 129kts
24-Aug-19 11:49 33.689912 -117.859490 205 677ft 97kts
24-Aug-19 11:50 33.674109 -117.870447 289 60ft 17kts
24-Aug-19 11:51 33.672503 -117.872358 208 60ft 19kts
24-Aug-19 11:52 33.672006 -117.873524 295 60ft 0kts
24-Aug-19 11:53 33.672006 -117.873523 295 60ft 0kts

Navigation Log

Ident Type
Flight plan parsing failed, navigation log unavailable